Time;durP1;ratioP1;P1;durP2;ratioP2;P2;SDS_P1;SDS_P2;PMS_P1;PMS_P2;Temp;Humidity;BMP_temperature;BMP_pressure;BME280_temperature;BME280_humidity;BME280_pressure;Samples;Min_cycle;Max_cycle;Signal;HPM_P1;HPM_P2
2021/07/18 13:23:11;;;;;;;3.57;3.03;;;18.00;99.90;;;;;;5149670;27;20276;-82
2021/07/18 13:25:41;;;;;;;3.53;3.23;;;18.60;99.90;;;;;;5114026;28;20626;-82
2021/07/18 13:28:10;;;;;;;4.47;3.30;;;18.80;99.90;;;;;;5113643;28;20614;-82
2021/07/18 13:30:38;;;;;;;4.10;3.47;;;19.30;99.90;;;;;;5116915;28;20197;-82
2021/07/18 13:33:09;;;;;;;6.13;4.17;;;19.80;99.90;;;;;;5116094;28;20180;-82
2021/07/18 13:35:51;;;;;;;4.33;3.07;;;20.20;99.90;;;;;;5117135;28;20221;-83
2021/07/18 13:38:24;;;;;;;4.63;3.93;;;20.40;99.90;;;;;;5117955;28;20230;-82
2021/07/18 13:40:51;;;;;;;4.50;3.63;;;20.50;99.90;;;;;;5115885;28;20254;-82
2021/07/18 13:43:28;;;;;;;6.90;4.13;;;20.50;99.90;;;;;;5118485;28;20193;-82
2021/07/18 13:45:56;;;;;;;6.57;4.07;;;20.70;99.90;;;;;;5117384;28;20186;-82
2021/07/18 13:48:23;;;;;;;7.30;4.37;;;20.70;99.90;;;;;;5116706;28;20176;-82
2021/07/18 13:50:50;;;;;;;4.83;3.90;;;20.60;99.90;;;;;;5118038;28;20196;-81
2021/07/18 13:53:17;;;;;;;4.93;3.27;;;20.50;99.90;;;;;;5118221;28;20233;-83
2021/07/18 13:55:43;;;;;;;6.97;4.20;;;20.30;99.90;;;;;;5117170;28;20180;-82
2021/07/18 13:58:09;;;;;;;5.27;4.73;;;20.00;99.90;;;;;;5116974;28;20236;-82
2021/07/18 14:00:36;;;;;;;7.13;5.57;;;19.90;99.90;;;;;;5118503;28;20164;-82
2021/07/18 14:03:02;;;;;;;7.00;5.00;;;20.00;99.90;;;;;;5119533;28;20203;-83
2021/07/18 14:05:28;;;;;;;10.40;6.00;;;20.00;99.90;;;;;;5117518;28;20203;-82
2021/07/18 14:07:54;;;;;;;6.70;5.10;;;20.10;99.90;;;;;;5117580;28;20540;-83
2021/07/18 14:10:19;;;;;;;7.37;4.47;;;20.20;99.90;;;;;;5117048;28;20247;-83
2021/07/18 14:12:46;;;;;;;6.70;5.80;;;20.20;99.90;;;;;;5118959;28;20219;-83
2021/07/18 14:15:18;;;;;;;6.83;5.37;;;20.10;99.90;;;;;;5118580;28;20180;-83
2021/07/18 14:17:44;;;;;;;7.00;5.57;;;19.90;99.90;;;;;;5119915;28;20171;-83
2021/07/18 14:20:13;;;;;;;6.77;5.67;;;19.80;99.90;;;;;;5117842;28;20642;-83
2021/07/18 14:22:40;;;;;;;6.43;5.83;;;19.70;99.90;;;;;;5118993;28;20215;-83
2021/07/18 14:25:08;;;;;;;8.60;5.80;;;19.70;99.90;;;;;;5120791;28;20225;-83
2021/07/18 14:27:36;;;;;;;11.67;6.80;;;19.70;99.90;;;;;;5121445;28;20164;-83
2021/07/18 14:30:07;;;;;;;7.23;5.73;;;20.00;99.90;;;;;;5121597;28;20172;-84
2021/07/18 14:32:33;;;;;;;9.57;5.60;;;20.70;99.90;;;;;;5120677;28;20196;-83
2021/07/18 14:34:59;;;;;;;7.13;5.80;;;21.70;99.90;;;;;;5109146;28;20180;-83
2021/07/18 14:37:25;;;;;;;7.57;5.10;;;22.20;99.90;;;;;;5109253;28;20656;-83
2021/07/18 14:39:50;;;;;;;7.13;5.33;;;22.50;99.90;;;;;;5106527;28;20194;-83
2021/07/18 14:42:17;;;;;;;8.03;5.87;;;22.90;99.90;;;;;;5106090;28;20700;-83
2021/07/18 14:44:43;;;;;;;8.17;5.60;;;23.40;99.90;;;;;;5105421;28;20176;-83
2021/07/18 14:47:08;;;;;;;10.30;5.87;;;23.70;99.90;;;;;;5107836;28;20174;-83
2021/07/18 14:49:34;;;;;;;7.17;5.40;;;23.90;99.90;;;;;;5105186;28;20262;-84
2021/07/18 14:52:01;;;;;;;7.00;5.13;;;23.90;99.90;;;;;;5106270;28;20640;-81
2021/07/18 14:54:27;;;;;;;5.73;5.13;;;24.10;99.90;;;;;;5107057;28;20188;-81
2021/07/18 14:56:53;;;;;;;9.67;5.37;;;24.20;99.90;;;;;;5105076;28;20589;-84
2021/07/18 14:59:18;;;;;;;6.67;5.57;;;24.80;99.90;;;;;;5107037;28;20242;-84
2021/07/18 15:01:44;;;;;;;6.87;5.87;;;25.30;99.90;;;;;;5104977;28;20255;-81
2021/07/18 15:04:10;;;;;;;9.27;6.03;;;25.70;99.90;;;;;;5108022;28;20184;-80
2021/07/18 15:06:35;;;;;;;8.03;5.90;;;25.50;99.90;;;;;;5109170;28;20174;-80
2021/07/18 15:09:01;;;;;;;8.57;6.57;;;25.20;99.90;;;;;;5109169;28;20191;-80
2021/07/18 15:11:27;;;;;;;7.57;6.77;;;25.20;99.90;;;;;;5111699;28;20192;-79
2021/07/18 15:13:53;;;;;;;8.23;6.43;;;25.20;99.90;;;;;;5110027;28;20176;-79
2021/07/18 15:16:19;;;;;;;11.77;6.67;;;25.40;99.90;;;;;;5099079;28;20186;-79
2021/07/18 15:18:45;;;;;;;7.67;5.93;;;25.40;99.90;;;;;;5098572;28;20189;-81
2021/07/18 15:21:11;;;;;;;6.03;5.40;;;25.50;99.90;;;;;;5096635;28;20222;-81
2021/07/18 15:23:36;;;;;;;6.90;5.47;;;25.50;99.90;;;;;;5108774;28;20176;-81
2021/07/18 15:26:03;;;;;;;7.20;5.70;;;25.60;99.90;;;;;;5100486;28;20221;-81
2021/07/18 15:28:28;;;;;;;6.50;5.90;;;25.60;99.90;;;;;;5102458;28;20190;-82
2021/07/18 15:30:54;;;;;;;6.40;5.37;;;25.80;99.90;;;;;;5102647;28;20206;-82
2021/07/18 15:33:20;;;;;;;7.20;5.97;;;25.70;99.90;;;;;;5103997;28;20183;-82
2021/07/18 15:35:46;;;;;;;7.17;5.67;;;25.60;99.90;;;;;;5105596;28;20607;-82
2021/07/18 15:38:11;;;;;;;6.80;5.60;;;25.70;99.90;;;;;;5105516;28;20172;-82
2021/07/18 15:40:37;;;;;;;7.03;5.50;;;24.90;99.90;;;;;;5102365;28;20251;-81
2021/07/18 15:43:03;;;;;;;6.03;5.47;;;24.90;99.90;;;;;;5102347;28;20221;-81
2021/07/18 15:45:29;;;;;;;6.83;6.10;;;25.10;99.90;;;;;;5101188;28;20255;-82
2021/07/18 15:47:54;;;;;;;7.23;5.90;;;25.40;99.90;;;;;;5102008;28;20186;-80
2021/07/18 15:50:20;;;;;;;8.63;5.57;;;25.20;99.90;;;;;;5100966;28;20184;-81
2021/07/18 15:52:46;;;;;;;7.73;6.27;;;24.70;99.90;;;;;;5103739;28;20590;-82
2021/07/18 15:55:12;;;;;;;7.10;5.53;;;24.70;99.90;;;;;;5101545;28;20648;-81
2021/07/18 15:57:38;;;;;;;6.87;6.17;;;24.60;99.90;;;;;;5102735;28;20638;-81
2021/07/18 16:00:07;;;;;;;7.40;5.83;;;24.80;99.90;;;;;;5101773;28;20182;-81
2021/07/18 16:02:37;;;;;;;7.03;5.97;;;24.60;99.90;;;;;;5100852;28;20307;-80
2021/07/18 16:05:06;;;;;;;8.37;6.40;;;24.40;99.90;;;;;;5101865;28;20265;-81
2021/07/18 16:07:31;;;;;;;7.60;5.67;;;24.20;99.90;;;;;;5103035;28;20174;-81
2021/07/18 16:09:57;;;;;;;8.40;6.43;;;24.20;99.90;;;;;;5102298;28;20181;-81
2021/07/18 16:12:23;;;;;;;9.50;6.40;;;24.10;99.90;;;;;;5101872;28;20205;-79
2021/07/18 16:14:48;;;;;;;7.60;6.80;;;23.90;99.90;;;;;;5102820;28;20174;-81
2021/07/18 16:17:15;;;;;;;7.20;6.47;;;23.80;99.90;;;;;;5101250;28;20192;-79
2021/07/18 16:19:41;;;;;;;10.40;6.47;;;23.40;99.90;;;;;;5104158;28;20187;-79
2021/07/18 16:22:09;;;;;;;9.77;6.90;;;23.50;99.90;;;;;;5101353;28;20218;-80
2021/07/18 16:24:35;;;;;;;10.00;6.57;;;23.70;99.90;;;;;;5100591;28;20243;-79
2021/07/18 16:27:01;;;;;;;9.27;7.07;;;23.90;99.90;;;;;;5103453;28;20204;-80
2021/07/18 16:29:28;;;;;;;6.70;6.00;;;24.00;99.90;;;;;;5104220;28;20225;-80
2021/07/18 16:31:53;;;;;;;10.07;7.50;;;23.30;99.90;;;;;;5103271;28;20206;-80
2021/07/18 16:34:19;;;;;;;8.20;6.57;;;22.90;99.90;;;;;;5105592;28;20245;-79
2021/07/18 16:36:45;;;;;;;9.77;6.57;;;22.50;99.90;;;;;;5103002;28;20183;-79
2021/07/18 16:39:10;;;;;;;7.50;6.63;;;22.00;99.90;;;;;;5103785;28;20638;-79
2021/07/18 16:41:36;;;;;;;11.80;7.17;;;21.70;99.90;;;;;;5102104;28;20210;-82
2021/07/18 16:44:04;;;;;;;10.07;7.50;;;21.40;99.90;;;;;;5104740;28;20176;-81
2021/07/18 16:46:30;;;;;;;9.13;7.30;;;21.10;99.90;;;;;;5104232;28;20168;-80
2021/07/18 16:48:56;;;;;;;9.20;7.03;;;20.80;99.90;;;;;;5103792;28;20175;-78
2021/07/18 16:51:21;;;;;;;10.37;7.37;;;20.60;99.90;;;;;;5100163;28;20295;-77
2021/07/18 16:53:47;;;;;;;10.20;6.77;;;20.40;99.90;;;;;;5110484;28;20547;-77
2021/07/18 16:56:13;;;;;;;10.93;7.07;;;20.20;99.90;;;;;;5104684;28;20176;-78
2021/07/18 16:58:39;;;;;;;8.60;6.93;;;20.10;99.90;;;;;;5110765;28;20596;-77
2021/07/18 17:01:05;;;;;;;9.90;7.47;;;20.10;99.90;;;;;;5096235;28;20230;-77
2021/07/18 17:03:30;;;;;;;8.80;6.80;;;20.10;99.90;;;;;;5094374;28;20182;-77
2021/07/18 17:05:56;;;;;;;10.20;7.27;;;20.10;99.90;;;;;;5094585;28;20525;-77
2021/07/18 17:08:21;;;;;;;9.13;7.43;;;20.10;99.90;;;;;;5103454;28;20200;-77
2021/07/18 17:10:47;;;;;;;11.00;7.53;;;20.10;99.90;;;;;;5093431;28;20194;-77
2021/07/18 17:13:13;;;;;;;9.93;7.27;;;20.20;99.90;;;;;;5093778;28;20255;-77
2021/07/18 17:15:39;;;;;;;9.07;7.70;;;20.20;99.90;;;;;;5092826;28;20174;-77
2021/07/18 17:18:04;;;;;;;9.73;8.03;;;20.10;99.90;;;;;;5092506;28;20173;-77
2021/07/18 17:20:30;;;;;;;7.83;7.03;;;20.10;99.90;;;;;;5093608;28;20211;-77
2021/07/18 17:22:55;;;;;;;9.27;7.10;;;20.00;99.90;;;;;;5094108;28;20205;-77
2021/07/18 17:25:21;;;;;;;8.53;7.30;;;20.00;99.90;;;;;;5094328;28;20170;-78
2021/07/18 17:27:47;;;;;;;8.80;6.60;;;19.90;99.90;;;;;;5098359;28;20181;-78
2021/07/18 17:30:13;;;;;;;9.33;7.20;;;19.80;99.90;;;;;;5097757;28;20655;-78
2021/07/18 17:32:38;;;;;;;10.57;7.30;;;19.80;99.90;;;;;;5096661;28;20212;-77
2021/07/18 17:35:04;;;;;;;11.13;6.93;;;19.70;99.90;;;;;;5095830;28;20189;-77
2021/07/18 17:37:30;;;;;;;9.57;6.83;;;19.60;99.90;;;;;;5093797;28;20197;-78
2021/07/18 17:39:56;;;;;;;10.50;7.57;;;19.60;99.90;;;;;;5094715;28;20179;-78
2021/07/18 17:42:21;;;;;;;9.27;6.90;;;19.50;99.90;;;;;;5094499;28;20570;-80
2021/07/18 17:44:47;;;;;;;10.00;7.00;;;19.50;99.90;;;;;;5094645;28;20180;-78
2021/07/18 17:47:13;;;;;;;7.53;6.80;;;19.40;99.90;;;;;;5094534;28;20165;-81
2021/07/18 17:49:38;;;;;;;7.90;6.43;;;19.40;99.90;;;;;;5093626;28;20181;-78
2021/07/18 17:52:05;;;;;;;10.47;7.53;;;19.40;99.90;;;;;;5093314;28;20650;-78
2021/07/18 17:54:31;;;;;;;11.47;7.70;;;19.40;99.90;;;;;;5094512;28;20701;-78
2021/07/18 17:56:57;;;;;;;8.47;7.23;;;19.40;99.90;;;;;;5094951;28;20176;-79
2021/07/18 17:59:25;;;;;;;11.77;8.37;;;19.30;99.90;;;;;;5098449;28;20203;-79
2021/07/18 18:01:51;;;;;;;10.70;7.60;;;19.30;99.90;;;;;;5088588;28;20208;-79
2021/07/18 18:04:17;;;;;;;9.63;7.43;;;19.30;99.90;;;;;;5094886;28;20176;-78
2021/07/18 18:06:43;;;;;;;10.07;7.90;;;19.30;99.90;;;;;;5095214;28;20192;-78
2021/07/18 18:09:09;;;;;;;11.77;8.33;;;19.20;99.90;;;;;;5097297;28;20179;-79
2021/07/18 18:11:35;;;;;;;12.77;8.27;;;19.20;99.90;;;;;;5107447;28;20670;-82
2021/07/18 18:14:01;;;;;;;14.40;7.93;;;19.10;99.90;;;;;;5107873;28;20181;-82
2021/07/18 18:16:27;;;;;;;10.33;8.10;;;19.10;99.90;;;;;;5109688;28;20726;-82
2021/07/18 18:18:52;;;;;;;14.33;8.53;;;19.00;99.90;;;;;;5108633;28;20199;-82
2021/07/18 18:21:18;;;;;;;10.63;8.20;;;19.00;99.90;;;;;;5110594;28;20271;-82
2021/07/18 18:23:44;;;;;;;10.23;8.27;;;19.00;99.90;;;;;;5114837;28;20168;-81
2021/07/18 18:26:09;;;;;;;10.83;8.27;;;18.90;99.90;;;;;;5109828;28;20187;-81
2021/07/18 18:28:35;;;;;;;10.70;7.87;;;18.90;99.90;;;;;;5106298;28;20168;-81
2021/07/18 18:31:02;;;;;;;10.03;7.50;;;18.80;99.90;;;;;;5106370;28;20212;-81
2021/07/18 18:33:29;;;;;;;10.60;8.33;;;18.80;99.90;;;;;;5107203;28;20310;-82
2021/07/18 18:35:57;;;;;;;12.63;8.43;;;18.70;99.90;;;;;;5107183;28;20165;-82
2021/07/18 18:38:23;;;;;;;12.73;8.83;;;18.60;99.90;;;;;;5108153;28;20165;-82
2021/07/18 18:40:49;;;;;;;12.77;8.10;;;18.60;99.90;;;;;;5108811;28;20192;-82
2021/07/18 18:43:17;;;;;;;11.03;8.60;;;18.50;99.90;;;;;;5108652;28;20649;-82
2021/07/18 18:45:43;;;;;;;12.00;7.97;;;18.50;99.90;;;;;;5107085;28;20180;-81
2021/07/18 18:48:08;;;;;;;14.63;8.97;;;18.50;99.90;;;;;;5106554;28;20179;-82
2021/07/18 18:50:34;;;;;;;13.40;9.10;;;18.40;99.90;;;;;;5106265;28;20177;-82
2021/07/18 18:53:00;;;;;;;11.37;8.80;;;18.30;99.90;;;;;;5106329;28;20188;-82
2021/07/18 18:55:26;;;;;;;11.23;8.73;;;18.30;99.90;;;;;;5104583;28;20201;-82
2021/07/18 18:57:52;;;;;;;10.77;8.57;;;18.30;99.90;;;;;;5104820;28;20173;-81
2021/07/18 19:00:18;;;;;;;15.60;8.90;;;18.30;99.90;;;;;;5101360;28;20181;-81
2021/07/18 19:02:43;;;;;;;14.40;9.13;;;18.20;99.90;;;;;;5098440;28;20226;-81
2021/07/18 19:05:10;;;;;;;11.57;8.33;;;18.10;99.90;;;;;;5111058;28;20584;-81
2021/07/18 19:07:37;;;;;;;10.00;8.63;;;18.10;99.90;;;;;;5104935;28;20176;-82
2021/07/18 19:10:08;;;;;;;12.73;9.70;;;18.10;99.90;;;;;;5106211;28;20172;-82
2021/07/18 19:12:39;;;;;;;11.80;9.50;;;18.00;99.90;;;;;;5107412;28;20193;-82
2021/07/18 19:15:11;;;;;;;15.43;9.63;;;18.00;99.90;;;;;;5107575;28;20161;-81
2021/07/18 19:17:37;;;;;;;13.87;10.40;;;17.90;99.90;;;;;;5105452;28;20182;-81
2021/07/18 19:20:03;;;;;;;15.37;10.20;;;17.90;99.90;;;;;;5104223;28;20241;-82
2021/07/18 19:22:29;;;;;;;14.07;9.67;;;17.80;99.90;;;;;;5106609;28;20220;-81
2021/07/18 19:24:55;;;;;;;12.43;10.00;;;17.80;99.90;;;;;;5103931;28;20177;-82
2021/07/18 19:27:21;;;;;;;13.47;10.30;;;17.70;99.90;;;;;;5102984;28;20181;-82
2021/07/18 19:29:46;;;;;;;14.63;10.50;;;17.70;99.90;;;;;;5103584;28;20240;-82
2021/07/18 19:32:12;;;;;;;13.63;11.10;;;17.60;99.90;;;;;;5105117;28;20191;-82
2021/07/18 19:34:38;;;;;;;20.80;11.47;;;17.60;99.90;;;;;;5104562;28;20180;-82
2021/07/18 19:37:05;;;;;;;15.20;11.47;;;17.50;99.90;;;;;;5104486;28;20208;-82
2021/07/18 19:39:31;;;;;;;15.07;11.10;;;17.50;99.90;;;;;;5105621;28;20730;-82
2021/07/18 19:41:57;;;;;;;13.80;10.10;;;17.40;99.90;;;;;;5105432;28;20216;-82
2021/07/18 19:44:23;;;;;;;15.20;11.20;;;17.40;99.90;;;;;;5107767;28;20191;-82
2021/07/18 19:46:49;;;;;;;19.10;11.90;;;17.40;99.90;;;;;;5107265;28;20168;-82
2021/07/18 19:49:14;;;;;;;19.70;11.33;;;17.30;99.90;;;;;;5108277;28;20164;-82
2021/07/18 19:51:40;;;;;;;16.27;11.93;;;17.30;99.90;;;;;;5106676;28;20208;-81
2021/07/18 19:54:06;;;;;;;16.43;11.23;;;17.30;99.90;;;;;;5103928;28;20181;-82
2021/07/18 19:56:32;;;;;;;14.63;11.37;;;17.20;99.90;;;;;;5101938;28;20190;-82
2021/07/18 19:58:57;;;;;;;15.90;11.23;;;17.20;99.90;;;;;;5100668;28;20641;-82
2021/07/18 20:01:23;;;;;;;17.27;11.87;;;17.20;99.90;;;;;;5099097;28;20203;-82
2021/07/18 20:03:49;;;;;;;17.77;11.50;;;17.20;99.90;;;;;;5109826;28;20187;-82
2021/07/18 20:06:15;;;;;;;16.30;11.33;;;17.20;99.90;;;;;;5104426;28;20306;-82
2021/07/18 20:08:41;;;;;;;15.67;12.33;;;17.10;99.90;;;;;;5103157;28;20208;-82
2021/07/18 20:11:07;;;;;;;16.93;11.33;;;17.10;99.90;;;;;;5104601;28;20196;-82
2021/07/18 20:13:33;;;;;;;20.20;11.90;;;17.10;99.90;;;;;;5103482;28;20223;-82
2021/07/18 20:15:59;;;;;;;16.10;12.77;;;17.10;99.90;;;;;;5102695;28;20707;-82
2021/07/18 20:18:25;;;;;;;18.40;11.97;;;17.10;99.90;;;;;;5103076;28;20173;-82
2021/07/18 20:20:51;;;;;;;17.60;12.60;;;17.10;99.90;;;;;;5103503;28;20200;-82
2021/07/18 20:23:16;;;;;;;16.83;12.47;;;17.10;99.90;;;;;;5103928;28;20312;-82
2021/07/18 20:25:42;;;;;;;16.00;12.07;;;17.00;99.90;;;;;;5104466;28;20255;-83
2021/07/18 20:28:09;;;;;;;17.83;12.00;;;17.00;99.90;;;;;;5104468;28;20173;-82
2021/07/18 20:30:36;;;;;;;17.00;12.63;;;17.00;99.90;;;;;;5105663;28;20688;-83
2021/07/18 20:33:03;;;;;;;15.73;12.33;;;17.00;99.90;;;;;;5107653;28;20190;-83
2021/07/18 20:35:29;;;;;;;20.23;12.10;;;17.00;99.90;;;;;;5108881;28;20198;-83
2021/07/18 20:37:56;;;;;;;19.03;13.37;;;16.90;99.90;;;;;;5106967;28;20195;-83
2021/07/18 20:40:21;;;;;;;16.73;13.13;;;16.90;99.90;;;;;;5108530;28;20266;-82
2021/07/18 20:42:47;;;;;;;19.17;13.40;;;16.90;99.90;;;;;;5103589;28;20227;-83
2021/07/18 20:45:13;;;;;;;19.23;13.13;;;16.90;99.90;;;;;;5104451;28;20173;-83
2021/07/18 20:47:40;;;;;;;18.87;12.60;;;16.80;99.90;;;;;;5103435;28;20179;-83
2021/07/18 20:50:07;;;;;;;17.73;13.47;;;16.80;99.90;;;;;;5099321;28;20176;-83
2021/07/18 20:52:33;;;;;;;18.20;13.20;;;16.80;99.90;;;;;;5102047;28;20612;-82
2021/07/18 20:55:00;;;;;;;20.47;14.13;;;16.80;99.90;;;;;;5101935;28;20179;-82
2021/07/18 20:57:25;;;;;;;17.70;13.40;;;16.80;99.90;;;;;;5102825;28;20180;-83
2021/07/18 20:59:51;;;;;;;19.00;13.10;;;16.80;99.90;;;;;;5103258;28;20218;-82
2021/07/18 21:02:17;;;;;;;17.03;13.30;;;16.80;99.90;;;;;;5104041;28;20226;-82
2021/07/18 21:04:43;;;;;;;21.73;14.20;;;16.80;99.90;;;;;;5102470;28;20176;-83
2021/07/18 21:07:08;;;;;;;22.93;15.13;;;16.80;99.90;;;;;;5103272;28;20176;-83
2021/07/18 21:09:34;;;;;;;22.50;14.07;;;16.70;99.90;;;;;;5105658;28;20180;-82
2021/07/18 21:12:02;;;;;;;21.77;13.13;;;16.80;99.90;;;;;;5114806;28;20256;-83
2021/07/18 21:14:28;;;;;;;18.27;13.80;;;16.70;99.90;;;;;;5109713;28;20747;-83
2021/07/18 21:16:54;;;;;;;18.40;13.73;;;16.70;99.90;;;;;;5104663;28;20165;-83
2021/07/18 21:19:20;;;;;;;20.83;14.70;;;16.70;99.90;;;;;;5104460;28;20172;-85
2021/07/18 21:21:45;;;;;;;20.00;14.67;;;16.70;99.90;;;;;;5102619;28;20562;-83
2021/07/18 21:24:11;;;;;;;22.43;14.33;;;16.60;99.90;;;;;;5103182;28;20172;-82
2021/07/18 21:26:37;;;;;;;20.10;14.60;;;16.60;99.90;;;;;;5103998;28;20167;-83
2021/07/18 21:29:03;;;;;;;23.27;15.00;;;16.60;99.90;;;;;;5103028;28;20204;-82
2021/07/18 21:31:29;;;;;;;21.93;15.53;;;16.60;99.90;;;;;;5099559;28;20206;-82
2021/07/18 21:33:55;;;;;;;19.63;14.40;;;16.60;99.90;;;;;;5098244;28;20180;-82
2021/07/18 21:36:21;;;;;;;21.53;14.47;;;16.60;99.90;;;;;;5102627;28;20211;-82
2021/07/18 21:38:46;;;;;;;18.47;13.83;;;16.60;99.90;;;;;;5103880;28;20179;-82
2021/07/18 21:41:12;;;;;;;19.57;14.53;;;16.60;99.90;;;;;;5101078;28;20250;-82
2021/07/18 21:43:38;;;;;;;22.40;14.60;;;16.50;99.90;;;;;;5104629;28;20200;-83
2021/07/18 21:46:03;;;;;;;22.97;14.90;;;16.50;99.90;;;;;;5105857;28;20637;-82
2021/07/18 21:48:29;;;;;;;18.67;14.83;;;16.50;99.90;;;;;;5103729;28;20176;-82
2021/07/18 21:50:55;;;;;;;20.47;14.63;;;16.50;99.90;;;;;;5104295;28;20192;-82
2021/07/18 21:53:20;;;;;;;22.33;14.77;;;16.40;99.90;;;;;;5102040;28;20657;-82
2021/07/18 21:55:46;;;;;;;21.50;15.50;;;16.40;99.90;;;;;;5100981;28;20271;-82
2021/07/18 21:58:12;;;;;;;19.53;14.20;;;16.40;99.90;;;;;;5113922;28;20184;-82
2021/07/18 22:00:38;;;;;;;20.93;14.83;;;16.30;99.90;;;;;;5108611;28;20181;-82
2021/07/18 22:03:07;;;;;;;23.30;14.93;;;16.30;99.90;;;;;;5109124;28;20565;-83
2021/07/18 22:05:34;;;;;;;20.80;14.33;;;16.20;99.90;;;;;;5107934;28;20176;-83
2021/07/18 22:07:59;;;;;;;20.70;15.43;;;16.20;99.90;;;;;;5108958;28;20179;-82
2021/07/18 22:10:31;;;;;;;20.97;15.03;;;16.10;99.90;;;;;;5108079;28;20176;-82
2021/07/18 22:12:58;;;;;;;21.20;13.83;;;16.10;99.90;;;;;;5108081;28;20177;-83
2021/07/18 22:15:26;;;;;;;19.70;14.53;;;16.00;99.90;;;;;;5105619;28;20266;-82
2021/07/18 22:17:52;;;;;;;20.60;14.63;;;16.00;99.90;;;;;;5108462;28;20206;-82
2021/07/18 22:20:18;;;;;;;22.27;14.33;;;16.00;99.90;;;;;;5108256;28;20173;-82
2021/07/18 22:22:45;;;;;;;22.50;15.03;;;16.00;99.90;;;;;;5106934;28;20219;-82
2021/07/18 22:25:11;;;;;;;25.47;14.60;;;16.00;99.90;;;;;;5108983;28;20180;-83
2021/07/18 22:27:38;;;;;;;21.53;14.90;;;15.90;99.90;;;;;;5111300;28;20172;-82
2021/07/18 22:30:07;;;;;;;21.53;14.40;;;15.90;99.90;;;;;;5111519;28;20199;-82
2021/07/18 22:32:32;;;;;;;19.83;14.27;;;15.90;99.90;;;;;;5111008;28;20200;-82
2021/07/18 22:34:58;;;;;;;22.60;15.30;;;15.90;99.90;;;;;;5108852;28;20196;-82
2021/07/18 22:37:25;;;;;;;23.77;15.57;;;15.90;99.90;;;;;;5109848;28;20176;-81
2021/07/18 22:39:51;;;;;;;19.17;14.40;;;15.80;99.90;;;;;;5108933;28;20191;-82
2021/07/18 22:42:17;;;;;;;18.90;13.63;;;15.80;99.90;;;;;;5118465;28;20215;-81
2021/07/18 22:44:44;;;;;;;18.97;14.13;;;15.70;99.90;;;;;;5120220;28;20172;-81
2021/07/18 22:47:09;;;;;;;19.83;14.27;;;15.70;99.90;;;;;;5113580;28;20272;-82
2021/07/18 22:49:35;;;;;;;21.77;14.63;;;15.70;99.90;;;;;;5106130;28;20534;-82
2021/07/18 22:52:00;;;;;;;19.30;14.57;;;15.60;99.90;;;;;;5107920;28;20204;-82
2021/07/18 22:54:26;;;;;;;19.17;13.90;;;15.60;99.90;;;;;;5108198;28;20183;-82
2021/07/18 22:56:52;;;;;;;20.53;14.23;;;15.60;99.90;;;;;;5106042;28;20180;-82
2021/07/18 22:59:17;;;;;;;17.57;13.57;;;15.50;99.90;;;;;;5106529;28;20191;-82
2021/07/18 23:01:43;;;;;;;18.57;13.33;;;15.40;99.90;;;;;;5106980;28;20211;-82
2021/07/18 23:04:09;;;;;;;17.30;13.77;;;15.40;99.90;;;;;;5107156;28;20654;-82
2021/07/18 23:06:34;;;;;;;17.70;13.60;;;15.40;99.90;;;;;;5105054;28;20176;-81
2021/07/18 23:09:00;;;;;;;16.20;12.37;;;15.40;99.90;;;;;;5105663;28;20542;-82
2021/07/18 23:11:25;;;;;;;18.83;12.87;;;15.40;99.90;;;;;;5105292;28;20206;-82
2021/07/18 23:13:51;;;;;;;16.03;12.47;;;15.40;99.90;;;;;;5105034;28;20200;-82
2021/07/18 23:16:17;;;;;;;18.37;13.03;;;15.30;99.90;;;;;;5106119;28;20183;-82
2021/07/18 23:18:42;;;;;;;19.23;11.97;;;15.30;99.90;;;;;;5107034;28;20208;-82
2021/07/18 23:21:08;;;;;;;16.87;12.07;;;15.30;99.90;;;;;;5107282;28;20207;-82
2021/07/18 23:23:35;;;;;;;17.30;12.40;;;15.20;99.90;;;;;;5105035;28;20165;-81
2021/07/18 23:26:00;;;;;;;16.47;12.33;;;15.20;99.90;;;;;;5105965;28;20168;-82
2021/07/18 23:28:27;;;;;;;15.30;12.20;;;15.20;99.90;;;;;;5105365;28;20263;-82
2021/07/18 23:30:52;;;;;;;14.60;11.47;;;15.20;99.90;;;;;;5103954;28;20719;-82
2021/07/18 23:33:18;;;;;;;15.27;12.10;;;15.20;99.90;;;;;;5104204;28;20185;-81
2021/07/18 23:35:44;;;;;;;15.77;12.17;;;15.10;99.90;;;;;;5104464;28;20196;-82
2021/07/18 23:38:09;;;;;;;15.27;11.93;;;15.10;99.90;;;;;;5104236;28;20183;-81
2021/07/18 23:40:35;;;;;;;15.33;12.13;;;15.10;99.90;;;;;;5104686;28;20172;-81
2021/07/18 23:43:01;;;;;;;15.50;12.33;;;15.10;99.90;;;;;;5104779;28;20637;-81
2021/07/18 23:45:26;;;;;;;15.30;12.33;;;15.10;99.90;;;;;;5105435;28;20273;-82
2021/07/18 23:47:52;;;;;;;15.10;11.67;;;15.10;99.90;;;;;;5103667;28;20187;-81
2021/07/18 23:50:18;;;;;;;17.67;12.23;;;15.10;99.90;;;;;;5102284;28;20160;-82
2021/07/18 23:52:43;;;;;;;14.37;11.57;;;15.00;99.90;;;;;;5100753;28;20204;-81
2021/07/18 23:55:10;;;;;;;15.13;11.70;;;15.00;99.90;;;;;;5109262;28;20184;-81
2021/07/18 23:57:37;;;;;;;14.73;11.50;;;15.00;99.90;;;;;;5104954;28;20188;-82
